sensor_id;sensor_type;location;lat;lon;timestamp;pressure;altitude;pressure_sealevel;temperature;humidity
19594;BME280;9944;48.240;16.478;2023-03-17T00:02:18;100454.28;;;2.08;48.38
19594;BME280;9944;48.240;16.478;2023-03-17T00:06:25;100457.69;;;2.07;48.33
19594;BME280;9944;48.240;16.478;2023-03-17T00:10:31;100458.53;;;2.06;48.16
19594;BME280;9944;48.240;16.478;2023-03-17T00:14:34;100471.41;;;2.03;48.48
19594;BME280;9944;48.240;16.478;2023-03-17T00:18:38;100458.25;;;2.00;48.39
19594;BME280;9944;48.240;16.478;2023-03-17T00:22:41;100446.69;;;1.93;48.61
19594;BME280;9944;48.240;16.478;2023-03-17T00:26:46;100443.09;;;1.90;48.35
19594;BME280;9944;48.240;16.478;2023-03-17T00:30:52;100445.44;;;1.84;48.52
19594;BME280;9944;48.240;16.478;2023-03-17T00:34:56;100446.25;;;1.83;48.60
19594;BME280;9944;48.240;16.478;2023-03-17T00:38:59;100431.53;;;1.83;48.54
19594;BME280;9944;48.240;16.478;2023-03-17T00:43:04;100427.84;;;1.78;48.63
19594;BME280;9944;48.240;16.478;2023-03-17T00:47:10;100432.16;;;1.77;48.66
19594;BME280;9944;48.240;16.478;2023-03-17T00:51:14;100424.22;;;1.74;48.73
19594;BME280;9944;48.240;16.478;2023-03-17T00:55:17;100411.06;;;1.71;48.82
19594;BME280;9944;48.240;16.478;2023-03-17T00:59:26;100404.78;;;1.66;48.85
19594;BME280;9944;48.240;16.478;2023-03-17T01:03:31;100397.69;;;1.62;48.98
19594;BME280;9944;48.240;16.478;2023-03-17T01:07:35;100392.03;;;1.51;49.02
19594;BME280;9944;48.240;16.478;2023-03-17T01:11:39;100387.56;;;1.49;49.11
19594;BME280;9944;48.240;16.478;2023-03-17T01:15:45;100383.00;;;1.43;49.37
19594;BME280;9944;48.240;16.478;2023-03-17T01:19:49;100369.78;;;1.38;49.58
19594;BME280;9944;48.240;16.478;2023-03-17T01:23:52;100361.97;;;1.37;49.74
19594;BME280;9944;48.240;16.478;2023-03-17T01:27:57;100366.13;;;1.33;49.71
19594;BME280;9944;48.240;16.478;2023-03-17T01:32:02;100364.34;;;1.32;49.60
19594;BME280;9944;48.240;16.478;2023-03-17T01:36:06;100361.59;;;1.29;49.86
19594;BME280;9944;48.240;16.478;2023-03-17T01:40:14;100351.78;;;1.22;49.78
19594;BME280;9944;48.240;16.478;2023-03-17T01:44:18;100348.28;;;1.22;49.88
19594;BME280;9944;48.240;16.478;2023-03-17T01:48:22;100336.81;;;1.16;50.10
19594;BME280;9944;48.240;16.478;2023-03-17T01:52:27;100328.88;;;1.13;50.06
19594;BME280;9944;48.240;16.478;2023-03-17T01:56:31;100332.09;;;1.08;49.99
19594;BME280;9944;48.240;16.478;2023-03-17T02:00:39;100335.38;;;1.04;50.20
19594;BME280;9944;48.240;16.478;2023-03-17T02:04:44;100342.84;;;0.96;50.25
19594;BME280;9944;48.240;16.478;2023-03-17T02:08:47;100333.09;;;0.90;50.34
19594;BME280;9944;48.240;16.478;2023-03-17T02:12:52;100329.25;;;0.82;50.51
19594;BME280;9944;48.240;16.478;2023-03-17T02:16:57;100321.31;;;0.79;50.65
19594;BME280;9944;48.240;16.478;2023-03-17T02:25:35;100327.00;;;0.70;50.91
19594;BME280;9944;48.240;16.478;2023-03-17T02:29:39;100321.72;;;0.69;50.93
19594;BME280;9944;48.240;16.478;2023-03-17T02:33:43;100320.69;;;0.65;51.27
19594;BME280;9944;48.240;16.478;2023-03-17T02:37:46;100324.88;;;0.61;51.28
19594;BME280;9944;48.240;16.478;2023-03-17T02:41:51;100315.97;;;0.56;51.40
19594;BME280;9944;48.240;16.478;2023-03-17T02:45:54;100316.59;;;0.51;51.89
19594;BME280;9944;48.240;16.478;2023-03-17T02:49:57;100307.78;;;0.47;51.35
19594;BME280;9944;48.240;16.478;2023-03-17T02:54:00;100309.44;;;0.45;51.66
19594;BME280;9944;48.240;16.478;2023-03-17T02:58:05;100316.94;;;0.39;51.72
19594;BME280;9944;48.240;16.478;2023-03-17T03:02:08;100319.44;;;0.37;51.84
19594;BME280;9944;48.240;16.478;2023-03-17T03:06:12;100325.56;;;0.38;51.92
19594;BME280;9944;48.240;16.478;2023-03-17T03:10:16;100331.63;;;0.38;52.14
19594;BME280;9944;48.240;16.478;2023-03-17T03:14:21;100325.56;;;0.38;52.12
19594;BME280;9944;48.240;16.478;2023-03-17T03:18:24;100325.56;;;0.38;52.42
19594;BME280;9944;48.240;16.478;2023-03-17T03:22:27;100320.94;;;0.32;52.21
19594;BME280;9944;48.240;16.478;2023-03-17T03:26:30;100326.91;;;0.30;52.34
19594;BME280;9944;48.240;16.478;2023-03-17T03:30:35;100312.75;;;0.23;52.87
19594;BME280;9944;48.240;16.478;2023-03-17T03:34:39;100301.41;;;0.21;52.69
19594;BME280;9944;48.240;16.478;2023-03-17T03:38:42;100290.13;;;0.20;53.18
19594;BME280;9944;48.240;16.478;2023-03-17T03:42:45;100291.59;;;0.15;53.60
19594;BME280;9944;48.240;16.478;2023-03-17T03:46:50;100294.97;;;0.13;53.27
19594;BME280;9944;48.240;16.478;2023-03-17T03:50:55;100289.69;;;0.11;53.42
19594;BME280;9944;48.240;16.478;2023-03-17T03:54:58;100270.56;;;0.09;53.45
19594;BME280;9944;48.240;16.478;2023-03-17T03:59:02;100281.75;;;0.08;53.63
19594;BME280;9944;48.240;16.478;2023-03-17T04:03:06;100273.97;;;0.08;53.82
19594;BME280;9944;48.240;16.478;2023-03-17T04:07:09;100283.41;;;0.06;53.72
19594;BME280;9944;48.240;16.478;2023-03-17T04:11:13;100282.44;;;0.04;53.71
19594;BME280;9944;48.240;16.478;2023-03-17T04:15:18;100284.09;;;0.02;53.79
19594;BME280;9944;48.240;16.478;2023-03-17T04:19:23;100288.38;;;0.01;53.71
19594;BME280;9944;48.240;16.478;2023-03-17T04:23:26;100275.47;;;0.03;53.99
19594;BME280;9944;48.240;16.478;2023-03-17T04:27:29;100280.53;;;-0.00;54.11
19594;BME280;9944;48.240;16.478;2023-03-17T04:31:33;100283.66;;;-0.07;54.17
19594;BME280;9944;48.240;16.478;2023-03-17T04:35:37;100281.00;;;-0.09;54.58
19594;BME280;9944;48.240;16.478;2023-03-17T04:39:40;100278.03;;;-0.17;54.71
19594;BME280;9944;48.240;16.478;2023-03-17T04:43:43;100275.28;;;-0.20;54.45
19594;BME280;9944;48.240;16.478;2023-03-17T04:47:46;100277.75;;;-0.23;54.61
19594;BME280;9944;48.240;16.478;2023-03-17T04:51:51;100275.75;;;-0.28;54.68
19594;BME280;9944;48.240;16.478;2023-03-17T04:55:54;100273.75;;;-0.34;55.11
19594;BME280;9944;48.240;16.478;2023-03-17T04:59:58;100267.69;;;-0.35;54.75
19594;BME280;9944;48.240;16.478;2023-03-17T05:04:01;100272.78;;;-0.36;55.17
19594;BME280;9944;48.240;16.478;2023-03-17T05:08:06;100271.84;;;-0.38;55.14
19594;BME280;9944;48.240;16.478;2023-03-17T05:12:10;100266.34;;;-0.44;55.15
19594;BME280;9944;48.240;16.478;2023-03-17T05:16:13;100278.34;;;-0.46;55.33
19594;BME280;9944;48.240;16.478;2023-03-17T05:20:16;100267.09;;;-0.47;55.62
19594;BME280;9944;48.240;16.478;2023-03-17T05:24:21;100275.84;;;-0.45;55.49
19594;BME280;9944;48.240;16.478;2023-03-17T05:28:24;100264.72;;;-0.42;55.44
19594;BME280;9944;48.240;16.478;2023-03-17T05:32:27;100268.41;;;-0.37;55.25
19594;BME280;9944;48.240;16.478;2023-03-17T05:36:30;100277.97;;;-0.36;55.40
19594;BME280;9944;48.240;16.478;2023-03-17T05:40:35;100278.22;;;-0.32;55.46
19594;BME280;9944;48.240;16.478;2023-03-17T05:44:38;100281.97;;;-0.25;55.64
19594;BME280;9944;48.240;16.478;2023-03-17T05:48:41;100280.41;;;-0.21;55.28
19594;BME280;9944;48.240;16.478;2023-03-17T05:52:45;100274.03;;;-0.10;55.09
19594;BME280;9944;48.240;16.478;2023-03-17T05:56:51;100274.59;;;0.02;55.03
19594;BME280;9944;48.240;16.478;2023-03-17T06:00:54;100268.31;;;0.17;54.75
19594;BME280;9944;48.240;16.478;2023-03-17T06:04:58;100268.88;;;0.29;54.54
19594;BME280;9944;48.240;16.478;2023-03-17T06:09:01;100277.16;;;0.40;54.30
19594;BME280;9944;48.240;16.478;2023-03-17T06:13:07;100265.38;;;0.48;54.16
19594;BME280;9944;48.240;16.478;2023-03-17T06:17:11;100266.91;;;0.62;54.19
19594;BME280;9944;48.240;16.478;2023-03-17T06:21:15;100253.44;;;0.71;54.20
19594;BME280;9944;48.240;16.478;2023-03-17T06:25:18;100269.63;;;0.85;54.01
19594;BME280;9944;48.240;16.478;2023-03-17T06:29:23;100253.91;;;1.03;53.58
19594;BME280;9944;48.240;16.478;2023-03-17T06:33:27;100261.72;;;1.24;53.02
19594;BME280;9944;48.240;16.478;2023-03-17T06:37:30;100257.50;;;1.49;52.65
19594;BME280;9944;48.240;16.478;2023-03-17T06:41:34;100250.50;;;1.69;51.94
19594;BME280;9944;48.240;16.478;2023-03-17T06:45:38;100243.81;;;1.98;51.47
19594;BME280;9944;48.240;16.478;2023-03-17T06:49:43;100251.50;;;2.18;50.95
19594;BME280;9944;48.240;16.478;2023-03-17T06:53:47;100238.97;;;2.31;50.69
19594;BME280;9944;48.240;16.478;2023-03-17T06:57:50;100247.47;;;2.50;50.19
19594;BME280;9944;48.240;16.478;2023-03-17T07:01:54;100257.66;;;2.68;49.84
19594;BME280;9944;48.240;16.478;2023-03-17T07:05:58;100267.00;;;2.87;50.09
19594;BME280;9944;48.240;16.478;2023-03-17T07:10:02;100263.44;;;3.09;50.06
19594;BME280;9944;48.240;16.478;2023-03-17T07:14:06;100256.25;;;3.29;49.33
19594;BME280;9944;48.240;16.478;2023-03-17T07:18:11;100253.34;;;3.45;48.45
19594;BME280;9944;48.240;16.478;2023-03-17T07:22:14;100250.41;;;3.63;49.05
19594;BME280;9944;48.240;16.478;2023-03-17T07:26:17;100248.38;;;3.82;48.56
19594;BME280;9944;48.240;16.478;2023-03-17T07:30:20;100258.72;;;4.06;48.69
19594;BME280;9944;48.240;16.478;2023-03-17T07:34:24;100265.47;;;4.28;47.88
19594;BME280;9944;48.240;16.478;2023-03-17T07:38:29;100260.88;;;4.50;47.88
19594;BME280;9944;48.240;16.478;2023-03-17T07:42:32;100242.31;;;4.72;46.89
19594;BME280;9944;48.240;16.478;2023-03-17T07:46:35;100242.78;;;4.91;46.33
19594;BME280;9944;48.240;16.478;2023-03-17T07:50:40;100231.94;;;5.09;45.70
19594;BME280;9944;48.240;16.478;2023-03-17T07:54:44;100235.03;;;5.29;45.79
19594;BME280;9944;48.240;16.478;2023-03-17T07:58:47;100236.38;;;5.48;45.14
19594;BME280;9944;48.240;16.478;2023-03-17T08:02:50;100241.16;;;5.66;44.19
19594;BME280;9944;48.240;16.478;2023-03-17T08:07:11;100210.03;;;5.78;45.11
19594;BME280;9944;48.240;16.478;2023-03-17T08:11:15;100218.22;;;5.94;44.54
19594;BME280;9944;48.240;16.478;2023-03-17T08:15:19;100211.47;;;6.05;43.88
19594;BME280;9944;48.240;16.478;2023-03-17T08:19:23;100209.78;;;6.08;44.16
19594;BME280;9944;48.240;16.478;2023-03-17T08:23:27;100217.88;;;6.19;43.31
19594;BME280;9944;48.240;16.478;2023-03-17T08:27:31;100212.00;;;6.31;43.84
19594;BME280;9944;48.240;16.478;2023-03-17T08:31:35;100211.44;;;6.44;44.03
19594;BME280;9944;48.240;16.478;2023-03-17T08:35:39;100204.72;;;6.60;42.79
19594;BME280;9944;48.240;16.478;2023-03-17T08:39:44;100208.50;;;6.73;42.32
19594;BME280;9944;48.240;16.478;2023-03-17T08:43:48;100203.38;;;6.81;42.56
19594;BME280;9944;48.240;16.478;2023-03-17T08:47:52;100211.38;;;6.89;41.63
19594;BME280;9944;48.240;16.478;2023-03-17T08:51:55;100213.22;;;6.93;41.17
19594;BME280;9944;48.240;16.478;2023-03-17T08:56:00;100201.81;;;6.92;41.36
19594;BME280;9944;48.240;16.478;2023-03-17T09:00:04;100200.31;;;7.07;42.06
19594;BME280;9944;48.240;16.478;2023-03-17T09:04:11;100198.81;;;7.21;41.74
19594;BME280;9944;48.240;16.478;2023-03-17T09:08:15;100194.47;;;7.24;40.29
19594;BME280;9944;48.240;16.478;2023-03-17T09:12:24;100194.66;;;7.35;41.16
19594;BME280;9944;48.240;16.478;2023-03-17T09:16:27;100201.75;;;7.39;40.92
19594;BME280;9944;48.240;16.478;2023-03-17T09:20:34;100217.53;;;7.44;39.94
19594;BME280;9944;48.240;16.478;2023-03-17T09:24:37;100223.72;;;7.48;40.59
19594;BME280;9944;48.240;16.478;2023-03-17T09:28:42;100212.50;;;7.58;39.35
19594;BME280;9944;48.240;16.478;2023-03-17T09:32:45;100210.91;;;7.68;40.25
19594;BME280;9944;48.240;16.478;2023-03-17T09:36:49;100213.69;;;7.78;40.52
19594;BME280;9944;48.240;16.478;2023-03-17T09:40:56;100220.78;;;7.86;39.85
19594;BME280;9944;48.240;16.478;2023-03-17T09:45:13;100211.19;;;7.86;39.33
19594;BME280;9944;48.240;16.478;2023-03-17T09:49:23;100189.41;;;7.95;39.46
19594;BME280;9944;48.240;16.478;2023-03-17T09:53:33;100186.84;;;8.03;38.83
19594;BME280;9944;48.240;16.478;2023-03-17T09:57:39;100178.16;;;8.08;38.80
19594;BME280;9944;48.240;16.478;2023-03-17T10:01:43;100191.41;;;8.14;38.67
19594;BME280;9944;48.240;16.478;2023-03-17T10:05:47;100199.38;;;8.22;39.05
19594;BME280;9944;48.240;16.478;2023-03-17T10:09:57;100195.03;;;8.24;37.75
19594;BME280;9944;48.240;16.478;2023-03-17T10:14:06;100171.38;;;8.27;37.38
19594;BME280;9944;48.240;16.478;2023-03-17T10:18:15;100145.16;;;8.32;37.81
19594;BME280;9944;48.240;16.478;2023-03-17T10:22:21;100165.41;;;8.39;38.09
19594;BME280;9944;48.240;16.478;2023-03-17T10:26:30;100161.19;;;8.52;37.66
19594;BME280;9944;48.240;16.478;2023-03-17T10:30:34;100173.59;;;8.67;37.38
19594;BME280;9944;48.240;16.478;2023-03-17T10:34:40;100154.44;;;8.82;37.07
19594;BME280;9944;48.240;16.478;2023-03-17T10:38:49;100143.16;;;8.97;37.21
19594;BME280;9944;48.240;16.478;2023-03-17T10:43:00;100156.41;;;9.07;37.09
19594;BME280;9944;48.240;16.478;2023-03-17T10:47:20;100152.97;;;9.19;36.63
19594;BME280;9944;48.240;16.478;2023-03-17T10:51:29;100138.19;;;9.34;36.56
19594;BME280;9944;48.240;16.478;2023-03-17T10:55:39;100128.63;;;9.49;36.15
19594;BME280;9944;48.240;16.478;2023-03-17T10:59:49;100126.00;;;9.57;36.12
19594;BME280;9944;48.240;16.478;2023-03-17T11:03:54;100129.56;;;9.62;35.37
19594;BME280;9944;48.240;16.478;2023-03-17T11:08:07;100140.13;;;9.65;35.46
19594;BME280;9944;48.240;16.478;2023-03-17T11:12:21;100134.88;;;9.72;36.15
19594;BME280;9944;48.240;16.478;2023-03-17T11:16:26;100118.22;;;9.79;35.06
19594;BME280;9944;48.240;16.478;2023-03-17T11:20:49;100125.28;;;9.86;35.94
19594;BME280;9944;48.240;16.478;2023-03-17T11:24:59;100115.66;;;9.94;35.22
19594;BME280;9944;48.240;16.478;2023-03-17T11:29:19;100133.28;;;10.04;35.81
19594;BME280;9944;48.240;16.478;2023-03-17T11:33:41;100114.00;;;10.21;34.90
19594;BME280;9944;48.240;16.478;2023-03-17T11:42:19;100103.50;;;10.42;35.64
19594;BME280;9944;48.240;16.478;2023-03-17T11:46:27;100089.44;;;10.57;35.12
19594;BME280;9944;48.240;16.478;2023-03-17T11:50:36;100083.28;;;10.65;34.57
19594;BME280;9944;48.240;16.478;2023-03-17T11:54:45;100069.22;;;10.70;34.75
19594;BME280;9944;48.240;16.478;2023-03-17T11:58:59;100060.41;;;10.77;33.76
19594;BME280;9944;48.240;16.478;2023-03-17T12:03:11;100043.66;;;10.88;34.67
19594;BME280;9944;48.240;16.478;2023-03-17T12:07:20;100034.84;;;10.98;34.67
19594;BME280;9944;48.240;16.478;2023-03-17T12:11:27;100052.47;;;10.99;34.10
19594;BME280;9944;48.240;16.478;2023-03-17T12:15:35;100046.31;;;10.95;34.11
19594;BME280;9944;48.240;16.478;2023-03-17T12:19:43;100054.22;;;11.00;33.90
19594;BME280;9944;48.240;16.478;2023-03-17T12:23:48;100045.44;;;11.04;32.87
19594;BME280;9944;48.240;16.478;2023-03-17T12:27:58;100033.97;;;11.14;32.99
19594;BME280;9944;48.240;16.478;2023-03-17T12:32:07;100026.00;;;11.24;32.60
19594;BME280;9944;48.240;16.478;2023-03-17T12:36:15;100015.44;;;11.27;32.87
19594;BME280;9944;48.240;16.478;2023-03-17T12:40:20;100018.97;;;11.32;32.50
19594;BME280;9944;48.240;16.478;2023-03-17T12:44:36;100021.59;;;11.24;32.27
19594;BME280;9944;48.240;16.478;2023-03-17T12:48:56;100012.78;;;11.28;33.09
19594;BME280;9944;48.240;16.478;2023-03-17T12:53:13;100003.06;;;11.29;32.54
19594;BME280;9944;48.240;16.478;2023-03-17T12:57:26;99995.16;;;11.26;31.59
19594;BME280;9944;48.240;16.478;2023-03-17T13:01:32;99977.56;;;11.23;32.32
19594;BME280;9944;48.240;16.478;2023-03-17T13:05:38;99974.91;;;11.22;31.92
19594;BME280;9944;48.240;16.478;2023-03-17T13:09:45;99971.38;;;11.27;31.63
19594;BME280;9944;48.240;16.478;2023-03-17T13:14:15;99973.13;;;11.36;32.22
19594;BME280;9944;48.240;16.478;2023-03-17T13:18:47;99958.13;;;11.40;31.29
19594;BME280;9944;48.240;16.478;2023-03-17T13:23:11;99969.56;;;11.40;31.06
19594;BME280;9944;48.240;16.478;2023-03-17T13:36:36;99959.00;;;11.43;30.95
19594;BME280;9944;48.240;16.478;2023-03-17T13:40:55;99951.94;;;11.45;31.27
19594;BME280;9944;48.240;16.478;2023-03-17T13:45:15;99944.84;;;11.50;31.48
19594;BME280;9944;48.240;16.478;2023-03-17T13:49:23;99946.63;;;11.51;30.73
19594;BME280;9944;48.240;16.478;2023-03-17T13:53:30;99931.69;;;11.41;30.53
19594;BME280;9944;48.240;16.478;2023-03-17T13:57:38;99921.13;;;11.36;30.95
19594;BME280;9944;48.240;16.478;2023-03-17T14:01:46;99922.03;;;11.34;30.39
19594;BME280;9944;48.240;16.478;2023-03-17T14:06:12;99913.22;;;11.29;30.17
19594;BME280;9944;48.240;16.478;2023-03-17T14:10:20;99910.63;;;11.19;30.41
19594;BME280;9944;48.240;16.478;2023-03-17T14:14:33;99912.41;;;11.13;30.71
19594;BME280;9944;48.240;16.478;2023-03-17T14:18:42;99915.03;;;11.19;29.50
19594;BME280;9944;48.240;16.478;2023-03-17T14:22:52;99918.56;;;11.21;30.75
19594;BME280;9944;48.240;16.478;2023-03-17T14:26:55;99907.09;;;11.24;30.62
19594;BME280;9944;48.240;16.478;2023-03-17T14:31:02;99904.44;;;11.24;30.37
19594;BME280;9944;48.240;16.478;2023-03-17T14:35:12;99904.44;;;11.19;30.39
19594;BME280;9944;48.240;16.478;2023-03-17T14:39:21;99901.84;;;11.14;30.49
19594;BME280;9944;48.240;16.478;2023-03-17T14:43:25;99900.94;;;11.15;30.13
19594;BME280;9944;48.240;16.478;2023-03-17T14:47:33;99899.16;;;11.17;30.44
19594;BME280;9944;48.240;16.478;2023-03-17T14:51:40;99899.16;;;11.17;30.47
19594;BME280;9944;48.240;16.478;2023-03-17T14:55:43;99890.38;;;11.15;30.02
19594;BME280;9944;48.240;16.478;2023-03-17T14:59:55;99878.06;;;11.11;30.25
19594;BME280;9944;48.240;16.478;2023-03-17T15:04:06;99886.00;;;11.13;30.58
19594;BME280;9944;48.240;16.478;2023-03-17T15:08:42;99876.31;;;11.09;30.05
19594;BME280;9944;48.240;16.478;2023-03-17T15:12:47;99878.13;;;11.02;30.62
19594;BME280;9944;48.240;16.478;2023-03-17T15:16:51;99876.38;;;10.95;29.91
19594;BME280;9944;48.240;16.478;2023-03-17T15:20:56;99878.19;;;10.87;30.15
19594;BME280;9944;48.240;16.478;2023-03-17T15:25:02;99874.69;;;10.80;30.36
19594;BME280;9944;48.240;16.478;2023-03-17T15:29:06;99872.03;;;10.81;30.81
19594;BME280;9944;48.240;16.478;2023-03-17T15:33:19;99851.78;;;10.77;29.68
19594;BME280;9944;48.240;16.478;2023-03-17T15:37:26;99850.06;;;10.70;30.53
19594;BME280;9944;48.240;16.478;2023-03-17T15:41:30;99844.81;;;10.64;30.92
19594;BME280;9944;48.240;16.478;2023-03-17T15:45:33;99836.03;;;10.62;30.97
19594;BME280;9944;48.240;16.478;2023-03-17T15:49:36;99848.34;;;10.60;30.54
19594;BME280;9944;48.240;16.478;2023-03-17T15:53:41;99843.09;;;10.54;30.92
19594;BME280;9944;48.240;16.478;2023-03-17T15:57:44;99835.22;;;10.43;30.76
19594;BME280;9944;48.240;16.478;2023-03-17T16:01:55;99850.16;;;10.36;31.44
19594;BME280;9944;48.240;16.478;2023-03-17T16:05:59;99848.41;;;10.32;31.16
19594;BME280;9944;48.240;16.478;2023-03-17T16:10:14;99843.16;;;10.29;31.31
19594;BME280;9944;48.240;16.478;2023-03-17T16:14:18;99831.72;;;10.24;30.85
19594;BME280;9944;48.240;16.478;2023-03-17T16:18:27;99827.31;;;10.17;31.03
19594;BME280;9944;48.240;16.478;2023-03-17T16:22:37;99833.47;;;10.08;30.95
19594;BME280;9944;48.240;16.478;2023-03-17T16:26:42;99837.91;;;10.01;30.80
19594;BME280;9944;48.240;16.478;2023-03-17T16:30:46;99834.41;;;9.96;31.00
19594;BME280;9944;48.240;16.478;2023-03-17T16:34:49;99839.63;;;9.90;31.12
19594;BME280;9944;48.240;16.478;2023-03-17T16:38:53;99841.38;;;9.85;30.96
19594;BME280;9944;48.240;16.478;2023-03-17T16:42:57;99839.63;;;9.78;31.23
19594;BME280;9944;48.240;16.478;2023-03-17T16:47:00;99843.16;;;9.71;31.30
19594;BME280;9944;48.240;16.478;2023-03-17T16:51:05;99846.66;;;9.63;31.90
19594;BME280;9944;48.240;16.478;2023-03-17T16:55:09;99848.41;;;9.55;31.79
19594;BME280;9944;48.240;16.478;2023-03-17T16:59:18;99851.00;;;9.49;32.15
19594;BME280;9944;48.240;16.478;2023-03-17T17:03:21;99860.69;;;9.41;32.37
19594;BME280;9944;48.240;16.478;2023-03-17T17:07:24;99860.66;;;9.33;32.47
19594;BME280;9944;48.240;16.478;2023-03-17T17:11:28;99858.03;;;9.27;32.79
19594;BME280;9944;48.240;16.478;2023-03-17T17:15:34;99864.13;;;9.21;32.34
19594;BME280;9944;48.240;16.478;2023-03-17T17:19:37;99864.13;;;9.15;32.75
19594;BME280;9944;48.240;16.478;2023-03-17T17:23:40;99869.38;;;9.09;32.95
19594;BME280;9944;48.240;16.478;2023-03-17T17:27:44;99874.63;;;9.03;32.64
19594;BME280;9944;48.240;16.478;2023-03-17T17:31:49;99864.06;;;9.00;33.08
19594;BME280;9944;48.240;16.478;2023-03-17T17:35:53;99864.06;;;8.97;32.74
19594;BME280;9944;48.240;16.478;2023-03-17T17:39:57;99871.06;;;8.91;32.76
19594;BME280;9944;48.240;16.478;2023-03-17T17:44:01;99856.09;;;8.83;33.00
19594;BME280;9944;48.240;16.478;2023-03-17T17:48:11;99851.69;;;8.77;33.19
19594;BME280;9944;48.240;16.478;2023-03-17T17:52:14;99849.91;;;8.70;33.20
19594;BME280;9944;48.240;16.478;2023-03-17T17:56:18;99847.25;;;8.67;33.76
19594;BME280;9944;48.240;16.478;2023-03-17T18:00:22;99844.63;;;8.61;33.65
19594;BME280;9944;48.240;16.478;2023-03-17T18:04:27;99855.13;;;8.58;33.73
19594;BME280;9944;48.240;16.478;2023-03-17T18:08:31;99842.81;;;8.50;33.94
19594;BME280;9944;48.240;16.478;2023-03-17T18:12:38;99833.13;;;8.48;34.05
19594;BME280;9944;48.240;16.478;2023-03-17T18:16:41;99850.63;;;8.41;34.38
19594;BME280;9944;48.240;16.478;2023-03-17T18:20:45;99840.94;;;8.34;34.54
19594;BME280;9944;48.240;16.478;2023-03-17T18:24:48;99844.41;;;8.30;34.62
19594;BME280;9944;48.240;16.478;2023-03-17T18:28:51;99842.63;;;8.23;34.88
19594;BME280;9944;48.240;16.478;2023-03-17T18:32:57;99846.94;;;8.16;34.88
19594;BME280;9944;48.240;16.478;2023-03-17T18:37:03;99842.53;;;8.10;35.02
19594;BME280;9944;48.240;16.478;2023-03-17T18:41:08;99835.47;;;8.06;35.11
19594;BME280;9944;48.240;16.478;2023-03-17T18:45:13;99832.84;;;8.02;35.10
19594;BME280;9944;48.240;16.478;2023-03-17T18:49:16;99838.06;;;7.98;35.25
19594;BME280;9944;48.240;16.478;2023-03-17T18:53:21;99835.38;;;7.94;35.26
19594;BME280;9944;48.240;16.478;2023-03-17T18:57:25;99840.63;;;7.91;35.49
19594;BME280;9944;48.240;16.478;2023-03-17T19:01:28;99833.59;;;7.87;35.59
19594;BME280;9944;48.240;16.478;2023-03-17T19:05:34;99833.53;;;7.80;35.66
19594;BME280;9944;48.240;16.478;2023-03-17T19:09:39;99830.88;;;7.74;35.87
19594;BME280;9944;48.240;16.478;2023-03-17T19:13:43;99825.56;;;7.70;35.80
19594;BME280;9944;48.240;16.478;2023-03-17T19:17:47;99834.28;;;7.66;35.83
19594;BME280;9944;48.240;16.478;2023-03-17T19:21:51;99821.09;;;7.61;36.03
19594;BME280;9944;48.240;16.478;2023-03-17T19:25:55;99824.63;;;7.60;36.05
19594;BME280;9944;48.240;16.478;2023-03-17T19:29:58;99830.69;;;7.54;36.23
19594;BME280;9944;48.240;16.478;2023-03-17T19:34:01;99831.50;;;7.49;36.45
19594;BME280;9944;48.240;16.478;2023-03-17T19:38:04;99821.88;;;7.46;36.58
19594;BME280;9944;48.240;16.478;2023-03-17T19:42:10;99828.81;;;7.42;36.62
19594;BME280;9944;48.240;16.478;2023-03-17T19:46:14;99827.06;;;7.40;36.79
19594;BME280;9944;48.240;16.478;2023-03-17T19:50:17;99818.25;;;7.36;36.91
19594;BME280;9944;48.240;16.478;2023-03-17T19:54:21;99813.81;;;7.29;37.03
19594;BME280;9944;48.240;16.478;2023-03-17T19:58:25;99823.41;;;7.24;37.19
19594;BME280;9944;48.240;16.478;2023-03-17T20:02:28;99814.59;;;7.19;37.09
19594;BME280;9944;48.240;16.478;2023-03-17T20:06:32;99817.19;;;7.16;37.30
19594;BME280;9944;48.240;16.478;2023-03-17T20:10:35;99825.00;;;7.11;37.63
19594;BME280;9944;48.240;16.478;2023-03-17T20:14:41;99817.09;;;7.07;37.69
19594;BME280;9944;48.240;16.478;2023-03-17T20:18:44;99811.81;;;7.03;37.45
19594;BME280;9944;48.240;16.478;2023-03-17T20:22:47;99817.91;;;7.04;37.65
19594;BME280;9944;48.240;16.478;2023-03-17T20:26:50;99826.63;;;6.98;37.68
19594;BME280;9944;48.240;16.478;2023-03-17T20:30:58;99830.09;;;6.97;37.82
19594;BME280;9944;48.240;16.478;2023-03-17T20:35:04;99823.91;;;6.92;37.78
19594;BME280;9944;48.240;16.478;2023-03-17T20:39:08;99818.66;;;6.91;37.79
19594;BME280;9944;48.240;16.478;2023-03-17T20:43:15;99816.88;;;6.88;38.09
19594;BME280;9944;48.240;16.478;2023-03-17T20:47:20;99818.59;;;6.86;38.28
19594;BME280;9944;48.240;16.478;2023-03-17T20:51:23;99820.28;;;6.81;38.24
19594;BME280;9944;48.240;16.478;2023-03-17T20:55:26;99815.00;;;6.78;38.29
19594;BME280;9944;48.240;16.478;2023-03-17T20:59:31;99816.69;;;6.73;38.22
19594;BME280;9944;48.240;16.478;2023-03-17T21:03:36;99810.56;;;6.72;38.28
19594;BME280;9944;48.240;16.478;2023-03-17T21:07:40;99806.16;;;6.70;38.38
19594;BME280;9944;48.240;16.478;2023-03-17T21:11:44;99800.91;;;6.66;38.61
19594;BME280;9944;48.240;16.478;2023-03-17T21:15:47;99806.09;;;6.63;38.30
19594;BME280;9944;48.240;16.478;2023-03-17T21:19:51;99804.25;;;6.56;38.65
19594;BME280;9944;48.240;16.478;2023-03-17T21:23:55;99797.25;;;6.55;38.56
19594;BME280;9944;48.240;16.478;2023-03-17T21:27:58;99798.13;;;6.56;38.71
19594;BME280;9944;48.240;16.478;2023-03-17T21:32:02;99796.31;;;6.50;38.47
19594;BME280;9944;48.240;16.478;2023-03-17T21:36:08;99794.53;;;6.47;38.79
19594;BME280;9944;48.240;16.478;2023-03-17T21:40:12;99780.50;;;6.44;39.10
19594;BME280;9944;48.240;16.478;2023-03-17T21:44:17;99777.81;;;6.41;38.92
19594;BME280;9944;48.240;16.478;2023-03-17T21:48:20;99783.88;;;6.37;39.12
19594;BME280;9944;48.240;16.478;2023-03-17T21:52:25;99790.78;;;6.33;39.24
19594;BME280;9944;48.240;16.478;2023-03-17T21:56:28;99775.88;;;6.27;39.21
19594;BME280;9944;48.240;16.478;2023-03-17T22:00:32;99770.63;;;6.26;39.32
19594;BME280;9944;48.240;16.478;2023-03-17T22:04:46;99785.41;;;6.22;39.25